Time;durP1;ratioP1;P1;durP2;ratioP2;P2;SDS_P1;SDS_P2;PMS_P1;PMS_P2;Temp;Humidity;BMP_temperature;BMP_pressure;BME280_temperature;BME280_humidity;BME280_pressure;Samples;Min_cycle;Max_cycle;Signal;HPM_P1;HPM_P2
2022/08/19 00:01:58;;;;;;;18.70;12.68;;;;;;;19.64;73.21;96971.69;5026744;28;20045;-55
2022/08/19 00:04:31;;;;;;;16.02;11.68;;;;;;;19.65;73.11;96959.59;5026224;28;20053;-51
2022/08/19 00:06:58;;;;;;;16.55;12.15;;;;;;;19.58;73.27;96960.06;5026421;28;20042;-49
2022/08/19 00:09:27;;;;;;;16.88;11.93;;;;;;;19.56;73.61;96965.06;5017132;28;20038;-54
2022/08/19 00:11:57;;;;;;;15.07;11.98;;;;;;;19.54;73.57;96972.00;5012833;28;20673;-52
2022/08/19 00:14:25;;;;;;;16.50;12.55;;;;;;;19.59;73.43;96958.09;5023179;28;20088;-54
2022/08/19 00:16:54;;;;;;;15.70;12.30;;;;;;;19.58;73.44;96960.06;5025431;28;20064;-55
2022/08/19 00:19:22;;;;;;;16.20;11.93;;;;;;;19.59;73.22;96958.94;5025226;28;20050;-53
2022/08/19 00:21:49;;;;;;;16.80;12.18;;;;;;;19.65;72.98;96967.00;5026473;28;20513;-50
2022/08/19 00:24:16;;;;;;;16.02;12.77;;;;;;;19.60;73.35;96966.03;5013696;28;20418;-55
2022/08/19 00:26:45;;;;;;;17.20;13.57;;;;;;;19.65;73.14;96964.25;5021342;28;20052;-55
2022/08/19 00:29:14;;;;;;;19.65;14.50;;;;;;;19.66;73.02;96957.63;5025541;28;20061;-52
2022/08/19 00:31:42;;;;;;;17.40;12.65;;;;;;;19.65;72.84;96951.34;5006714;28;20128;-51
2022/08/19 00:34:11;;;;;;;17.70;12.40;;;;;;;19.67;73.05;96949.06;5007206;28;20046;-52
2022/08/19 00:36:39;;;;;;;16.70;12.63;;;;;;;19.71;72.92;96951.97;5019349;28;20049;-52
2022/08/19 00:39:05;;;;;;;17.15;12.82;;;;;;;19.56;73.66;96947.75;5016495;28;20038;-51
2022/08/19 00:41:32;;;;;;;18.33;13.02;;;;;;;19.45;74.12;96942.59;5018574;28;20095;-53
2022/08/19 00:44:13;;;;;;;18.33;12.82;;;;;;;19.50;74.32;96941.63;5016957;28;20072;-52
2022/08/19 00:46:43;;;;;;;19.88;13.57;;;;;;;19.47;74.54;96923.06;5025237;28;20045;-53
2022/08/19 00:49:24;;;;;;;16.05;12.35;;;;;;;19.43;74.75;96914.66;5019542;28;20045;-55
2022/08/19 00:51:55;;;;;;;18.30;13.85;;;;;;;19.47;74.62;96934.81;5026063;28;20049;-54
2022/08/19 00:54:22;;;;;;;19.35;13.07;;;;;;;19.52;74.41;96928.38;5026259;28;20049;-53
2022/08/19 00:56:57;;;;;;;17.98;13.30;;;;;;;19.50;74.43;96920.47;5006784;28;20053;-54
2022/08/19 00:59:25;;;;;;;17.17;12.65;;;;;;;19.47;74.35;96923.84;5018054;28;20284;-54
2022/08/19 01:02:12;;;;;;;17.90;12.18;;;;;;;19.51;74.57;96924.03;5010136;28;20050;-51
2022/08/19 01:04:38;;;;;;;18.85;14.68;;;;;;;19.42;74.71;96928.72;5018709;28;20045;-53
2022/08/19 01:07:05;;;;;;;17.77;13.52;;;;;;;19.45;74.62;96931.59;5024377;28;20060;-54
2022/08/19 01:09:32;;;;;;;21.92;16.05;;;;;;;19.38;74.62;96938.72;5022600;28;20049;-55
2022/08/19 01:11:58;;;;;;;20.15;14.45;;;;;;;19.36;74.80;96937.06;5024359;28;20095;-51
2022/08/19 01:14:25;;;;;;;18.40;13.02;;;;;;;19.21;75.85;96935.59;5019456;28;20448;-58
2022/08/19 01:16:54;;;;;;;17.95;13.82;;;;;;;19.27;75.49;96943.69;5013012;28;20571;-52
2022/08/19 01:19:44;;;;;;;19.05;13.60;;;;;;;19.24;75.25;96947.91;5025275;28;20041;-54
2022/08/19 01:22:19;;;;;;;20.80;13.70;;;;;;;19.14;75.99;96938.03;5021462;28;20046;-51
2022/08/19 01:24:56;;;;;;;21.17;14.48;;;;;;;19.18;75.51;96940.94;5024960;28;20045;-54
2022/08/19 01:27:24;;;;;;;20.55;14.75;;;;;;;19.04;76.32;96935.53;5024781;28;20049;-52
2022/08/19 01:29:51;;;;;;;21.05;15.05;;;;;;;19.03;76.47;96932.00;5010331;28;20111;-52
2022/08/19 01:32:19;;;;;;;19.95;15.27;;;;;;;18.97;76.55;96923.09;5013182;28;20547;-53
2022/08/19 01:35:01;;;;;;;18.23;13.68;;;;;;;19.01;76.44;96928.75;5024888;28;20121;-51
2022/08/19 01:37:30;;;;;;;23.67;14.75;;;;;;;19.04;76.63;96922.63;5012826;28;20085;-49
2022/08/19 01:39:56;;;;;;;19.67;14.55;;;;;;;18.99;76.55;96920.03;5008205;28;20045;-54
2022/08/19 01:42:23;;;;;;;21.77;15.48;;;;;;;19.02;76.77;96921.34;5012576;28;20045;-55
2022/08/19 01:44:56;;;;;;;23.95;15.52;;;;;;;19.09;76.26;96919.75;5021679;28;20049;-52
2022/08/19 01:47:23;;;;;;;20.77;15.05;;;;;;;19.08;76.33;96926.38;5005265;28;20046;-49
2022/08/19 01:49:49;;;;;;;21.27;14.82;;;;;;;19.10;76.10;96929.59;5019538;28;20044;-52
2022/08/19 01:52:16;;;;;;;21.45;15.52;;;;;;;19.04;76.49;96933.59;5024095;28;20449;-49
2022/08/19 01:54:42;;;;;;;20.02;14.73;;;;;;;19.07;76.52;96929.44;5024969;28;20107;-51
2022/08/19 01:57:13;;;;;;;20.20;15.18;;;;;;;19.14;75.94;96918.00;5018879;28;20068;-49
2022/08/19 01:59:42;;;;;;;21.52;15.60;;;;;;;19.08;76.56;96928.31;5017272;28;20264;-50
2022/08/19 02:02:09;;;;;;;21.95;16.35;;;;;;;19.00;76.86;96929.88;5009124;28;20050;-51
2022/08/19 02:04:37;;;;;;;20.17;15.68;;;;;;;18.93;77.37;96935.00;5025061;28;20049;-50
2022/08/19 02:07:05;;;;;;;24.17;16.50;;;;;;;18.84;77.63;96929.50;5010652;28;20432;-55
2022/08/19 02:09:32;;;;;;;22.13;16.10;;;;;;;18.81;77.98;96941.94;5012302;28;20098;-54
2022/08/19 02:11:59;;;;;;;22.95;16.13;;;;;;;18.86;77.74;96932.72;5011625;28;20052;-51
2022/08/19 02:14:25;;;;;;;22.75;16.55;;;;;;;18.96;77.28;96943.44;5024712;28;20045;-53
2022/08/19 02:16:52;;;;;;;18.67;14.85;;;;;;;19.03;77.11;96942.16;5024039;28;20525;-51
2022/08/19 02:19:18;;;;;;;22.52;16.17;;;;;;;19.01;77.01;96934.22;5023209;28;20049;-52
2022/08/19 02:21:45;;;;;;;23.13;16.50;;;;;;;18.85;77.84;96926.47;5024822;28;20041;-54
2022/08/19 02:24:12;;;;;;;24.33;16.42;;;;;;;18.89;77.44;96932.09;5028606;28;20053;-54
2022/08/19 02:26:39;;;;;;;20.67;15.25;;;;;;;18.88;77.86;96935.16;5027881;28;20049;-51
2022/08/19 02:29:07;;;;;;;20.85;15.63;;;;;;;18.89;77.69;96934.84;5028555;28;20049;-52
2022/08/19 02:31:34;;;;;;;22.60;16.33;;;;;;;18.91;77.96;96934.53;5027960;28;20078;-54
2022/08/19 02:34:00;;;;;;;22.02;16.08;;;;;;;18.90;77.91;96919.22;5009082;28;20046;-52
2022/08/19 02:36:27;;;;;;;21.85;15.57;;;;;;;18.90;78.25;96925.47;5008979;28;20050;-52
2022/08/19 02:38:55;;;;;;;19.75;13.98;;;;;;;18.95;77.92;96922.59;5009609;28;20049;-53
2022/08/19 02:41:26;;;;;;;20.05;15.07;;;;;;;18.99;77.70;96925.53;5010430;28;20621;-52
2022/08/19 02:43:54;;;;;;;18.02;15.02;;;;;;;19.04;77.38;96922.63;5021059;28;20069;-51
2022/08/19 02:46:41;;;;;;;22.17;16.52;;;;;;;18.88;78.42;96918.69;5021791;28;21587;-52
2022/08/19 02:49:08;;;;;;;21.25;16.13;;;;;;;18.89;78.16;96915.66;5015286;28;20087;-54
2022/08/19 02:51:39;;;;;;;20.67;16.50;;;;;;;18.83;78.17;96917.72;5022411;28;20092;-51
2022/08/19 02:54:07;;;;;;;23.10;18.90;;;;;;;18.68;79.02;96915.38;5009117;28;20104;-49
2022/08/19 02:56:35;;;;;;;22.38;17.92;;;;;;;18.73;78.96;96920.75;5013260;28;20049;-50
2022/08/19 02:59:07;;;;;;;23.35;17.65;;;;;;;18.76;78.62;96909.13;5022119;28;20045;-52
2022/08/19 03:01:35;;;;;;;23.67;18.58;;;;;;;18.73;78.84;96915.28;5026259;28;20041;-55
2022/08/19 03:04:05;;;;;;;24.27;17.95;;;;;;;18.75;78.66;96917.72;5025773;28;20064;-55
2022/08/19 03:06:32;;;;;;;20.90;16.77;;;;;;;18.77;78.55;96918.19;5024737;28;20045;-55
2022/08/19 03:08:58;;;;;;;24.48;18.55;;;;;;;18.72;78.78;96921.88;5027464;28;20049;-51
2022/08/19 03:11:29;;;;;;;23.55;17.55;;;;;;;18.73;78.42;96937.22;5027301;28;20104;-51
2022/08/19 03:13:57;;;;;;;22.80;17.40;;;;;;;18.72;78.78;96938.31;5014756;28;20049;-53
2022/08/19 03:16:29;;;;;;;22.95;17.70;;;;;;;18.70;78.73;96935.09;5009327;28;20050;-55
2022/08/19 03:19:00;;;;;;;28.63;18.90;;;;;;;18.69;78.62;96939.75;5011222;28;20197;-51
2022/08/19 03:21:29;;;;;;;22.50;17.90;;;;;;;18.70;78.45;96930.44;5024296;28;20493;-56
2022/08/19 03:23:57;;;;;;;23.73;19.38;;;;;;;18.62;79.02;96928.47;5027324;28;20041;-50
2022/08/19 03:26:24;;;;;;;23.98;18.42;;;;;;;18.55;79.45;96930.84;5025925;28;20096;-54
2022/08/19 03:28:51;;;;;;;25.40;19.63;;;;;;;18.58;79.43;96932.94;5027280;28;20566;-51
2022/08/19 03:31:26;;;;;;;24.90;18.25;;;;;;;18.45;79.91;96935.47;5026300;28;20033;-54
2022/08/19 03:34:17;;;;;;;23.90;18.58;;;;;;;18.54;79.54;96940.19;5006969;28;20921;-49
2022/08/19 03:36:44;;;;;;;;;;;;;;;18.42;80.28;96933.34;5024974;28;20451;-52
2022/08/19 03:39:11;;;;;;;23.88;19.17;;;;;;;18.42;80.42;96929.78;5008785;28;20377;-51
2022/08/19 03:41:40;;;;;;;22.77;18.67;;;;;;;18.40;80.77;96924.66;5009319;28;20042;-53
2022/08/19 03:44:23;;;;;;;24.90;18.63;;;;;;;18.45;80.56;96923.69;5024036;28;20050;-55
2022/08/19 03:46:56;;;;;;;23.38;18.50;;;;;;;18.49;80.37;96923.84;5009823;28;20096;-53
2022/08/19 03:49:26;;;;;;;23.40;18.70;;;;;;;18.50;80.54;96926.28;5019573;28;20501;-52
2022/08/19 03:51:56;;;;;;;23.10;18.70;;;;;;;18.49;80.68;96926.59;5016420;28;20041;-52
2022/08/19 03:54:24;;;;;;;24.98;19.52;;;;;;;18.44;80.60;96922.91;5007702;28;20030;-54
2022/08/19 03:56:53;;;;;;;24.40;19.80;;;;;;;18.44;80.70;96927.56;5011928;28;20103;-52
2022/08/19 03:59:24;;;;;;;25.52;19.80;;;;;;;18.41;80.76;96934.47;5020035;28;20457;-50
2022/08/19 04:01:55;;;;;;;;;;;;;;;18.25;81.70;96944.22;5027599;28;20045;-53
2022/08/19 04:04:22;;;;;;;25.35;19.67;;;;;;;18.31;81.16;96940.22;5024851;28;20019;-49
2022/08/19 04:06:50;;;;;;;25.25;19.13;;;;;;;18.30;81.34;96949.56;5023281;28;20046;-51
2022/08/19 04:09:17;;;;;;;25.30;19.08;;;;;;;18.39;80.83;96958.63;5024286;28;20091;-52
2022/08/19 04:11:53;;;;;;;21.85;15.70;;;;;;;18.47;81.14;96954.34;5026038;28;20485;-55
2022/08/19 04:14:29;;;;;;;24.60;19.17;;;;;;;18.64;80.46;96961.84;5026576;28;20049;-53
2022/08/19 04:16:57;;;;;;;26.48;19.30;;;;;;;18.75;79.46;96959.63;5007514;28;20038;-53
2022/08/19 04:19:25;;;;;;;25.88;19.33;;;;;;;18.77;79.81;96951.91;5014304;28;20264;-55
2022/08/19 04:21:54;;;;;;;25.77;19.52;;;;;;;18.70;79.96;96952.38;5008571;28;20103;-55
2022/08/19 04:24:21;;;;;;;26.42;19.55;;;;;;;18.67;80.19;96957.66;5020905;28;20050;-52
2022/08/19 04:26:48;;;;;;;23.80;17.65;;;;;;;18.65;80.35;96955.22;5021106;28;20049;-54
2022/08/19 04:29:19;;;;;;;24.00;18.55;;;;;;;18.81;79.59;96963.03;5023685;28;20087;-53
2022/08/19 04:31:46;;;;;;;23.03;16.27;;;;;;;18.92;79.32;96953.41;5034958;28;20051;-51
2022/08/19 04:34:15;;;;;;;25.10;19.10;;;;;;;19.00;78.81;96949.09;5016231;28;20717;-49
2022/08/19 04:36:44;;;;;;;25.50;18.88;;;;;;;18.98;79.14;96945.84;5019899;28;20119;-51
2022/08/19 04:39:15;;;;;;;27.63;19.40;;;;;;;19.07;78.63;96945.91;5020723;28;20100;-52
2022/08/19 04:44:30;;;;;;;24.10;19.23;;;;;;;18.78;79.96;96947.22;5015917;28;20041;-52
2022/08/19 04:46:59;;;;;;;22.35;17.60;;;;;;;18.80;79.84;96954.00;5023317;28;20308;-54
2022/08/19 04:49:27;;;;;;;20.88;16.83;;;;;;;18.97;79.30;96945.03;5023286;28;20312;-54
2022/08/19 04:51:54;;;;;;;23.15;18.95;;;;;;;19.04;78.65;96943.75;5023284;28;20049;-54
2022/08/19 04:54:24;;;;;;;24.27;18.83;;;;;;;19.00;79.16;96946.34;5023057;28;20045;-53
2022/08/19 04:57:06;;;;;;;26.67;19.50;;;;;;;19.06;78.83;96953.31;5022950;28;20477;-54
2022/08/19 04:59:33;;;;;;;23.23;18.90;;;;;;;19.20;78.00;96944.97;5021107;28;20061;-56
2022/08/19 05:02:00;;;;;;;22.92;17.90;;;;;;;19.14;78.52;96953.66;5008475;28;20104;-54
2022/08/19 05:04:31;;;;;;;25.58;19.83;;;;;;;19.00;79.03;96953.75;5019294;28;20516;-54
2022/08/19 05:06:58;;;;;;;24.70;18.95;;;;;;;19.04;79.18;96955.56;5014690;28;20052;-49
2022/08/19 05:09:27;;;;;;;27.85;19.80;;;;;;;18.83;80.46;96960.78;5019100;28;20064;-49
2022/08/19 05:12:15;;;;;;;25.08;19.98;;;;;;;18.93;79.59;96962.44;5022688;28;20120;-55
2022/08/19 05:14:41;;;;;;;24.88;20.45;;;;;;;18.84;80.50;96976.13;5008362;28;20056;-51
2022/08/19 05:17:08;;;;;;;23.75;17.08;;;;;;;19.02;79.68;96971.50;5007860;28;20049;-51
2022/08/19 05:22:41;;;;;;;35.70;20.40;;;;;;;19.52;77.41;96979.72;5021236;28;20069;-52
2022/08/19 05:25:13;;;;;;;23.60;16.77;;;;;;;19.43;77.40;96987.97;5018411;28;20260;-56
2022/08/19 05:27:41;;;;;;;23.80;19.60;;;;;;;19.06;79.02;96999.16;5021383;28;20056;-52
2022/08/19 05:30:09;;;;;;;26.17;19.40;;;;;;;18.98;79.28;97004.25;5014762;28;20049;-56
2022/08/19 05:32:36;;;;;;;25.75;18.33;;;;;;;19.01;79.65;97008.31;5019813;28;20041;-56
2022/08/19 05:35:04;;;;;;;24.75;20.30;;;;;;;18.87;80.00;97010.34;5020153;28;20049;-57
2022/08/19 05:37:31;;;;;;;22.88;18.95;;;;;;;18.95;79.97;97013.13;5017183;28;20053;-54
2022/08/19 05:39:57;;;;;;;22.10;19.15;;;;;;;19.08;79.21;97019.66;5020341;28;20056;-56
2022/08/19 05:42:24;;;;;;;24.90;19.70;;;;;;;19.10;79.36;97033.06;5013356;28;20034;-52
2022/08/19 05:44:51;;;;;;;21.25;16.83;;;;;;;19.23;78.84;97037.66;5017551;28;20519;-52
2022/08/19 05:47:19;;;;;;;19.95;16.73;;;;;;;19.42;78.01;97050.28;5018366;28;20050;-56
2022/08/19 05:49:47;;;;;;;26.50;20.15;;;;;;;19.03;79.25;97055.44;5022472;28;20079;-52
2022/08/19 05:52:17;;;;;;;26.83;19.27;;;;;;;18.93;80.06;97047.47;5022790;28;20060;-55
2022/08/19 05:54:47;;;;;;;26.50;19.77;;;;;;;18.93;79.67;97040.06;5022564;28;20038;-52
2022/08/19 05:57:17;;;;;;;21.70;17.05;;;;;;;19.20;78.89;97035.53;5024105;28;20572;-52
2022/08/19 05:59:46;;;;;;;24.92;20.15;;;;;;;18.95;79.78;97051.53;5026061;28;20049;-55
2022/08/19 06:02:13;;;;;;;24.08;18.20;;;;;;;19.00;79.85;97042.34;5027021;28;20412;-53
2022/08/19 06:04:42;;;;;;;24.92;19.38;;;;;;;19.06;79.41;97037.56;5020126;28;20532;-49
2022/08/19 06:07:09;;;;;;;20.75;17.42;;;;;;;19.08;79.17;97036.13;5019742;28;20567;-54
2022/08/19 06:09:39;;;;;;;22.75;17.10;;;;;;;19.08;79.33;97038.06;5024836;28;20045;-54
2022/08/19 06:12:07;;;;;;;21.90;16.67;;;;;;;19.13;79.15;97037.94;5026012;28;20076;-56
2022/08/19 06:14:36;;;;;;;22.55;19.05;;;;;;;19.14;79.16;97036.00;5026609;28;20048;-52
2022/08/19 06:17:07;;;;;;;21.50;17.60;;;;;;;19.26;77.89;97027.97;5013582;28;20077;-53
2022/08/19 06:19:34;;;;;;;19.38;15.25;;;;;;;19.48;77.58;97038.06;5026216;28;20208;-53
2022/08/19 06:22:07;;;;;;;24.00;17.88;;;;;;;19.56;76.51;97033.69;5026609;28;20041;-52
2022/08/19 06:24:34;;;;;;;22.30;18.13;;;;;;;19.63;75.65;97030.47;5026053;28;20124;-54
2022/08/19 06:27:02;;;;;;;22.85;19.02;;;;;;;19.60;75.71;97031.13;5026979;28;20125;-53
2022/08/19 06:29:29;;;;;;;25.25;18.73;;;;;;;19.62;75.99;97039.84;5019066;28;20065;-63
2022/08/19 06:31:59;;;;;;;23.42;18.13;;;;;;;19.35;76.81;97034.28;5016130;28;20046;-63
2022/08/19 06:34:29;;;;;;;25.80;18.63;;;;;;;19.20;77.82;97021.00;5025127;28;20111;-63
2022/08/19 06:37:00;;;;;;;21.08;17.60;;;;;;;19.19;77.74;97024.84;5025383;28;20041;-63
2022/08/19 06:39:30;;;;;;;25.50;18.15;;;;;;;19.16;78.16;97026.31;5027165;28;20045;-63
2022/08/19 06:41:59;;;;;;;22.65;18.20;;;;;;;19.16;78.27;97023.56;5027034;28;20117;-63
2022/08/19 06:44:34;;;;;;;22.52;18.20;;;;;;;19.16;78.20;97023.56;5023403;28;20073;-63
2022/08/19 06:47:11;;;;;;;21.63;18.52;;;;;;;19.16;77.98;97029.06;5026322;28;20045;-62
2022/08/19 06:49:41;;;;;;;22.95;18.17;;;;;;;19.19;78.59;97035.84;5028196;28;20056;-63
2022/08/19 06:52:14;;;;;;;23.02;17.35;;;;;;;19.15;79.30;97026.63;5028662;28;20051;-63
2022/08/19 06:54:41;;;;;;;24.27;18.27;;;;;;;19.18;78.60;97031.47;5028264;28;20455;-64
2022/08/19 06:57:23;;;;;;;21.52;16.40;;;;;;;19.30;77.84;97045.41;5027912;28;20292;-61
2022/08/19 06:59:50;;;;;;;21.15;17.60;;;;;;;19.24;78.11;97044.75;5028846;28;20042;-62
2022/08/19 07:02:17;;;;;;;21.52;16.35;;;;;;;19.22;78.17;97046.19;5028265;28;20050;-62
2022/08/19 07:04:49;;;;;;;20.42;16.33;;;;;;;19.29;77.65;97049.28;5026484;28;20293;-63
2022/08/19 07:07:20;;;;;;;21.90;17.10;;;;;;;19.33;77.35;97041.22;5024918;28;20140;-63
2022/08/19 07:09:49;;;;;;;20.75;16.13;;;;;;;19.40;77.31;97038.84;5025342;28;20508;-63
2022/08/19 07:12:27;;;;;;;23.38;17.05;;;;;;;19.54;76.47;97046.94;5026246;28;20041;-63
2022/08/19 07:14:57;;;;;;;22.25;16.60;;;;;;;19.55;76.86;97054.06;5022409;28;20042;-62
2022/08/19 07:17:24;;;;;;;22.35;16.90;;;;;;;19.60;76.32;97051.16;5024904;28;20038;-64
2022/08/19 07:19:51;;;;;;;21.85;16.42;;;;;;;19.70;76.04;97051.97;5024979;28;20533;-62
2022/08/19 07:22:22;;;;;;;20.50;16.63;;;;;;;19.70;76.06;97051.97;5028345;28;20034;-63
2022/08/19 07:24:49;;;;;;;22.88;16.95;;;;;;;19.96;74.71;97054.78;5027450;28;20041;-62
2022/08/19 07:27:18;;;;;;;19.77;15.65;;;;;;;19.93;75.01;97055.41;5027727;28;20049;-63
2022/08/19 07:29:50;;;;;;;19.65;16.45;;;;;;;19.95;74.71;97057.84;5028949;28;20049;-62
2022/08/19 07:32:26;;;;;;;19.95;16.13;;;;;;;19.95;74.74;97061.41;5023968;28;20409;-63
2022/08/19 07:34:53;;;;;;;21.13;15.90;;;;;;;20.05;74.19;97060.28;5028179;28;20088;-62
2022/08/19 07:37:19;;;;;;;21.90;15.77;;;;;;;20.19;74.10;97062.09;5027727;28;20034;-63
2022/08/19 07:39:47;;;;;;;18.88;14.80;;;;;;;20.34;73.37;97060.81;5027587;28;20449;-63
2022/08/19 07:42:14;;;;;;;19.90;15.50;;;;;;;20.25;73.84;97056.13;5025391;28;20124;-63
2022/08/19 07:44:41;;;;;;;19.95;16.15;;;;;;;20.38;73.06;97064.53;5023185;28;20064;-63
2022/08/19 07:47:17;;;;;;;18.95;15.93;;;;;;;20.38;73.08;97059.03;5018993;28;20429;-63
2022/08/19 07:50:07;;;;;;;20.80;14.38;;;;;;;20.52;72.32;97076.16;5024786;28;20284;-62
2022/08/19 07:52:35;;;;;;;20.08;15.93;;;;;;;20.46;72.85;97066.47;5025669;28;20038;-63
2022/08/19 07:55:04;;;;;;;20.13;15.48;;;;;;;20.51;72.57;97058.03;5024899;28;20323;-64
2022/08/19 07:57:30;;;;;;;20.27;15.43;;;;;;;20.58;72.05;97046.53;5025161;28;20516;-64
2022/08/19 07:59:57;;;;;;;18.50;14.70;;;;;;;20.61;72.29;97054.16;5027695;28;20033;-63
2022/08/19 08:02:23;;;;;;;17.48;15.60;;;;;;;20.94;70.75;97063.00;5026896;28;20044;-63
2022/08/19 08:10:20;;;;;;;19.25;14.70;;;;;;;20.92;70.39;97075.16;5007769;28;20124;-63
2022/08/19 08:12:50;;;;;;;17.50;14.30;;;;;;;20.83;70.48;97079.03;5018060;28;20033;-62
2022/08/19 08:15:38;;;;;;;17.45;14.38;;;;;;;20.74;71.08;97076.28;5017730;28;20312;-63
2022/08/19 08:18:10;;;;;;;17.88;13.43;;;;;;;20.77;71.33;97065.44;5006859;28;20473;-63
2022/08/19 08:20:36;;;;;;;17.55;12.60;;;;;;;20.97;70.38;97067.84;5006440;28;20229;-63
2022/08/19 08:25:48;;;;;;;16.27;13.18;;;;;;;21.23;68.89;97077.97;5006633;28;20050;-64
2022/08/19 08:28:19;;;;;;;16.40;13.45;;;;;;;21.25;68.59;97083.94;5019718;28;20095;-63
2022/08/19 08:30:47;;;;;;;15.73;13.18;;;;;;;21.25;68.51;97078.44;5027028;28;20539;-62
2022/08/19 08:33:20;;;;;;;15.00;12.07;;;;;;;21.22;68.78;97071.66;5026608;28;20042;-62
2022/08/19 08:36:10;;;;;;;16.00;13.35;;;;;;;21.24;68.58;97080.41;5027033;28;20049;-63
2022/08/19 08:38:38;;;;;;;15.55;12.75;;;;;;;21.30;68.08;97084.56;5019304;28;20042;-63
2022/08/19 08:41:30;;;;;;;15.48;13.70;;;;;;;21.18;68.72;97088.03;5007327;28;20457;-64
2022/08/19 08:43:57;;;;;;;18.23;13.80;;;;;;;21.26;68.17;97091.88;5023577;28;20053;-64
2022/08/19 08:46:26;;;;;;;16.40;13.30;;;;;;;21.50;67.43;97093.25;5022772;28;20054;-63
2022/08/19 08:49:20;;;;;;;15.73;13.15;;;;;;;21.53;67.47;97087.06;5024569;28;20473;-63
2022/08/19 08:51:52;;;;;;;18.77;13.38;;;;;;;21.57;67.11;97087.22;5018065;28;20048;-63
2022/08/19 08:54:32;;;;;;;14.18;12.25;;;;;;;21.64;67.55;97086.69;5011741;28;20049;-64
2022/08/19 08:57:05;;;;;;;16.67;13.15;;;;;;;21.59;67.53;97092.41;5023451;28;20044;-62
2022/08/19 08:59:36;;;;;;;17.30;13.63;;;;;;;21.41;68.09;97096.03;5026522;28;20041;-64
2022/08/19 09:02:03;;;;;;;17.02;13.15;;;;;;;21.53;67.62;97087.06;5025676;28;20509;-64
2022/08/19 09:04:30;;;;;;;16.52;13.98;;;;;;;21.75;67.08;97096.25;5015790;28;20044;-63
2022/08/19 09:07:12;;;;;;;16.58;13.90;;;;;;;21.52;67.52;97092.91;5021310;28;20049;-64
2022/08/19 09:10:13;;;;;;;18.33;13.23;;;;;;;21.37;68.30;97095.06;5008212;28;20046;-64
2022/08/19 09:13:14;;;;;;;16.52;13.55;;;;;;;21.47;67.81;97084.81;5019382;28;20453;-63
2022/08/19 09:15:47;;;;;;;16.00;13.10;;;;;;;21.40;68.44;97088.09;5013821;28;20052;-64
2022/08/19 09:18:16;;;;;;;18.00;12.70;;;;;;;21.47;68.47;97087.56;5010681;28;20047;-64
2022/08/19 09:20:47;;;;;;;15.23;12.98;;;;;;;21.67;67.81;97086.84;5022876;28;20076;-63
2022/08/19 09:23:14;;;;;;;15.70;11.55;;;;;;;21.83;66.83;97098.09;5024225;28;20370;-63
2022/08/19 09:25:40;;;;;;;16.30;12.50;;;;;;;21.74;67.67;97100.09;5022228;28;20049;-63
2022/08/19 09:28:07;;;;;;;15.50;13.35;;;;;;;21.56;68.17;97096.63;5023299;28;20383;-62
2022/08/19 09:30:51;;;;;;;17.20;12.73;;;;;;;21.49;68.31;97093.56;5022025;28;20049;-64
2022/08/19 09:33:19;;;;;;;17.15;13.63;;;;;;;21.33;68.68;97098.84;5016058;28;20049;-65
2022/08/19 09:35:46;;;;;;;16.02;12.07;;;;;;;21.43;68.72;97102.03;5018713;28;20044;-63
2022/08/19 09:38:20;;;;;;;16.88;12.10;;;;;;;21.53;68.23;97097.28;5018836;28;20064;-63
2022/08/19 09:40:46;;;;;;;14.50;11.85;;;;;;;21.61;67.96;97098.38;5019940;28;20046;-64
2022/08/19 09:43:13;;;;;;;18.73;11.57;;;;;;;21.78;66.76;97103.03;5024556;28;20049;-65
2022/08/19 09:45:40;;;;;;;16.05;11.02;;;;;;;21.68;67.29;97099.47;5016167;28;20046;-63
2022/08/19 09:48:06;;;;;;;16.10;11.45;;;;;;;21.53;67.38;97098.06;5023002;28;20587;-63
2022/08/19 09:50:38;;;;;;;14.13;10.63;;;;;;;21.65;67.03;97102.06;5021507;28;20038;-63
2022/08/19 09:53:17;;;;;;;15.55;11.23;;;;;;;21.55;67.15;97098.56;5016632;28;20132;-63
2022/08/19 09:55:44;;;;;;;14.82;10.57;;;;;;;21.66;67.03;97104.50;5023311;28;20156;-63
2022/08/19 09:58:11;;;;;;;14.27;9.95;;;;;;;21.91;66.26;97107.50;5023032;28;20073;-63
2022/08/19 10:00:38;;;;;;;13.07;9.88;;;;;;;22.12;65.25;97098.44;5023584;28;20107;-63
2022/08/19 10:03:04;;;;;;;15.60;10.48;;;;;;;21.88;65.87;97110.09;5025070;28;20042;-63
2022/08/19 10:05:50;;;;;;;14.45;9.57;;;;;;;21.86;65.36;97106.88;5024822;28;20049;-63
2022/08/19 10:08:25;;;;;;;12.95;9.45;;;;;;;21.92;65.17;97102.75;5024287;28;20237;-63
2022/08/19 10:10:54;;;;;;;10.05;8.88;;;;;;;22.20;63.99;97103.09;5022709;28;20045;-62
2022/08/19 10:13:24;;;;;;;10.93;8.85;;;;;;;22.12;64.29;97111.41;5021059;28;20045;-63
2022/08/19 10:15:56;;;;;;;11.98;9.10;;;;;;;22.16;63.71;97104.09;5017221;28;20052;-63
2022/08/19 10:18:25;;;;;;;12.50;8.07;;;;;;;22.18;63.09;97108.13;5009251;28;20500;-63
2022/08/19 10:20:53;;;;;;;9.13;7.15;;;;;;;22.33;62.62;97100.38;5021917;28;20060;-63
2022/08/19 10:23:21;;;;;;;11.48;7.47;;;;;;;22.54;62.04;97100.38;5021184;28;20034;-63
2022/08/19 10:25:49;;;;;;;9.93;7.47;;;;;;;22.59;61.13;97104.94;5018723;28;20034;-63
2022/08/19 10:28:16;;;;;;;10.68;7.75;;;;;;;22.72;60.99;97092.78;5022602;28;20053;-62
2022/08/19 10:30:46;;;;;;;8.90;7.43;;;;;;;22.86;61.05;97097.97;5018708;28;20590;-63
2022/08/19 10:33:13;;;;;;;11.88;8.07;;;;;;;23.03;60.00;97098.97;5022908;28;20543;-63
2022/08/19 10:35:40;;;;;;;9.23;7.63;;;;;;;23.35;59.03;97104.81;5022303;28;20057;-63
2022/08/19 10:38:23;;;;;;;11.65;8.60;;;;;;;23.23;58.99;97105.59;5022832;28;20524;-63
2022/08/19 10:41:06;;;;;;;11.57;8.48;;;;;;;23.05;59.64;97104.13;5022830;28;20079;-63
2022/08/19 10:43:36;;;;;;;10.10;8.68;;;;;;;23.12;59.45;97096.13;5023769;28;20477;-62
2022/08/19 10:46:05;;;;;;;12.43;9.13;;;;;;;22.92;60.48;97084.78;5020438;28;20055;-63
2022/08/19 10:48:40;;;;;;;11.75;8.40;;;;;;;22.97;60.30;97073.50;5026882;28;20073;-62
2022/08/19 10:53:55;;;;;;;11.15;7.15;;;;;;;23.67;57.84;97067.53;5025312;28;20042;-62
2022/08/19 10:59:07;;;;;;;10.65;8.15;;;;;;;23.61;58.28;97050.34;5029378;28;20052;-63
2022/08/19 11:01:35;;;;;;;11.05;7.43;;;;;;;23.76;57.13;97052.44;5028133;28;20468;-62
2022/08/19 11:04:03;;;;;;;10.60;6.80;;;;;;;24.07;55.83;97052.97;5028498;28;20052;-62
2022/08/19 11:06:33;;;;;;;8.30;6.93;;;;;;;23.88;55.50;97048.84;5028518;28;20045;-64
2022/08/19 11:08:59;;;;;;;8.50;7.30;;;;;;;23.90;55.04;97051.25;5027965;28;20053;-62
2022/08/19 11:11:26;;;;;;;13.10;7.15;;;;;;;23.88;54.85;97048.06;5023299;28;20551;-62
2022/08/19 11:13:53;;;;;;;8.73;5.95;;;;;;;24.10;54.25;97057.00;5024318;28;20136;-63
2022/08/19 11:16:22;;;;;;;8.50;5.72;;;;;;;23.93;54.81;97060.81;5021622;28;20108;-63
2022/08/19 11:18:52;;;;;;;8.52;6.30;;;;;;;23.98;54.85;97063.31;5020918;28;20050;-63
2022/08/19 11:21:25;;;;;;;7.97;6.55;;;;;;;24.01;54.33;97059.88;5025688;28;20054;-63
2022/08/19 11:23:54;;;;;;;8.85;6.15;;;;;;;23.76;54.50;97055.19;5023859;28;20053;-63
2022/08/19 11:26:22;;;;;;;7.47;6.30;;;;;;;23.60;55.62;97049.56;5022578;28;20056;-63
2022/08/19 11:28:51;;;;;;;8.48;6.72;;;;;;;23.51;55.95;97046.91;5024618;28;20053;-63
2022/08/19 11:31:20;;;;;;;6.82;5.30;;;;;;;23.45;56.10;97047.50;5027735;28;20050;-63
2022/08/19 11:33:52;;;;;;;8.30;5.95;;;;;;;23.72;55.36;97051.50;5017297;28;20046;-63
2022/08/19 11:36:21;;;;;;;6.97;5.40;;;;;;;23.77;54.46;97056.78;5007888;28;20065;-63
2022/08/19 11:38:49;;;;;;;10.63;5.40;;;;;;;23.81;53.72;97059.66;5005695;28;20552;-63
2022/08/19 11:41:18;;;;;;;7.28;5.53;;;;;;;23.81;53.65;97056.91;5008498;28;20510;-63
2022/08/19 11:43:44;;;;;;;7.47;6.07;;;;;;;23.70;53.79;97066.84;5008628;28;20042;-62
2022/08/19 11:46:13;;;;;;;6.68;4.90;;;;;;;23.86;52.98;97067.75;5022086;28;20045;-61
2022/08/19 11:48:41;;;;;;;6.50;4.85;;;;;;;23.83;52.87;97068.44;5026598;28;20049;-61
2022/08/19 11:51:13;;;;;;;9.13;5.53;;;;;;;23.85;53.20;97066.09;5022648;28;20045;-61
2022/08/19 11:53:41;;;;;;;7.75;5.18;;;;;;;24.03;52.17;97060.34;5025268;28;20037;-64